Franklin, West Virginia
Current Conditions -  °F | °C
As of 1:15 AM on Saturday 01 Nov 2014 (Local Time) from KW99 Reporting Station
Moderate Rain Moderate Rain  
Wind Chill: 44°   Ceiling: 2400
Heat Index: 44°   Visibility: 5mi
Dew Point: 42°   Wind: 0mph
Humidity: 92%   Direction: NA
Pressure: 29.85"   Gusts: NA
Location:  38.64°N, 79.33°W
Report Text: KW99 010515Z AUTO 00000KT 5SM RA SCT019 OVC024 07/06 A2985 RMK AO2 T00690057
Loading
Personal Weather Stations






























Interactive Weather Map New forecast layout! Learn more

10-Day Weather Forecast

Advertisements
Track Severe Weather on mobile